Terminal Aerodrome Forecast
Issued by NWS Sioux Falls, SD

Home | Current Version | Previous Version | Text Only | Print | Product List | Glossary On
Versions: 1 2 3 4 5 6 7 8 9 10 11 12 13
000
FTUS43 KFSD 191720
TAFSUX
TAF
KSUX 191720Z 1918/2018 17012G20KT P6SM SKC
     FM200100 14007KT P6SM SKC
     FM200300 14006KT P6SM SKC WS020/19035KT
     FM201300 16011KT P6SM FEW250 WS020/20040KT
     FM201400 17014G26KT P6SM FEW250=

USA.gov is the U.S. government's official web portal to all federal, state and local government web resources and services.